Time;durP1;ratioP1;P1;durP2;ratioP2;P2;SDS_P1;SDS_P2;PMS_P1;PMS_P2;Temp;Humidity;BMP_temperature;BMP_pressure;BME280_temperature;BME280_humidity;BME280_pressure;Samples;Min_cycle;Max_cycle;Signal;HPM_P1;HPM_P2
2023/08/30 00:00:38;;;;;;;22.20;11.90;;;;;;;13.43;100.00;101196.38;5052441;28;20040;-66
2023/08/30 00:03:04;;;;;;;22.93;12.93;;;;;;;13.32;100.00;101176.19;5051882;28;20143;-67
2023/08/30 00:05:29;;;;;;;22.07;13.80;;;;;;;13.54;100.00;101207.53;5051859;28;20045;-67
2023/08/30 00:07:55;;;;;;;17.37;11.17;;;;;;;13.56;100.00;101213.56;5052472;28;20039;-65
2023/08/30 00:10:21;;;;;;;19.87;12.23;;;;;;;13.46;100.00;101193.34;5050904;28;20380;-68
2023/08/30 00:12:46;;;;;;;22.30;13.33;;;;;;;13.55;100.00;101195.00;5051844;28;20017;-68
2023/08/30 00:15:12;;;;;;;24.30;12.37;;;;;;;13.53;100.00;101188.97;5050427;28;20071;-67
2023/08/30 00:17:37;;;;;;;20.43;12.53;;;;;;;13.67;100.00;101212.38;5049567;28;20063;-66
2023/08/30 00:20:03;;;;;;;21.00;13.10;;;;;;;13.69;100.00;101215.72;5050192;28;20025;-68
2023/08/30 00:22:29;;;;;;;24.23;12.17;;;;;;;13.50;100.00;101192.00;5051474;28;20488;-65
2023/08/30 00:24:54;;;;;;;22.73;12.27;;;;;;;13.63;100.00;101221.75;5051524;28;20135;-68
2023/08/30 00:27:22;;;;;;;24.40;12.63;;;;;;;13.49;100.00;101204.53;5051560;28;20415;-66
2023/08/30 00:29:48;;;;;;;22.05;13.52;;;;;;;13.20;100.00;101158.78;5054831;28;20065;-68
2023/08/30 00:32:14;;;;;;;18.57;12.23;;;;;;;13.45;100.00;101211.25;5056251;28;20064;-66
2023/08/30 00:34:39;;;;;;;24.33;13.00;;;;;;;13.41;100.00;101214.44;5055014;28;20417;-64
2023/08/30 00:37:05;;;;;;;23.67;13.77;;;;;;;13.35;100.00;101209.78;5054062;28;20021;-68
2023/08/30 00:39:30;;;;;;;20.47;13.03;;;;;;;13.24;100.00;101198.41;5054520;28;20025;-67
2023/08/30 00:41:56;;;;;;;21.10;12.83;;;;;;;13.24;100.00;101205.59;5055151;28;20078;-67
2023/08/30 00:44:21;;;;;;;23.17;13.07;;;;;;;13.22;100.00;101207.59;5055207;28;20384;-66
2023/08/30 00:46:47;;;;;;;21.47;13.87;;;;;;;13.23;100.00;101210.09;5056236;28;20057;-66
2023/08/30 00:49:13;;;;;;;22.63;13.93;;;;;;;13.14;100.00;101197.72;5055004;28;20460;-65
2023/08/30 00:51:38;;;;;;;22.17;13.53;;;;;;;13.20;100.00;101206.94;5054846;28;20037;-68
2023/08/30 00:54:05;;;;;;;23.07;14.17;;;;;;;13.10;100.00;101199.06;5054719;28;20353;-69
2023/08/30 00:56:33;;;;;;;23.57;14.67;;;;;;;13.12;100.00;101202.41;5055003;28;20036;-65
2023/08/30 00:58:59;;;;;;;22.58;13.32;;;;;;;13.14;100.00;101211.09;5054952;28;20034;-66
2023/08/30 01:01:26;;;;;;;36.83;14.57;;;;;;;13.13;100.00;101214.78;5058982;28;20044;-64
2023/08/30 01:03:51;;;;;;;30.83;13.53;;;;;;;13.08;100.00;101210.94;5054681;28;20017;-66
2023/08/30 01:06:17;;;;;;;24.63;14.40;;;;;;;13.01;100.00;101206.25;5054863;28;20499;-67
2023/08/30 01:08:43;;;;;;;24.60;15.60;;;;;;;12.96;100.00;101195.22;5053533;28;20039;-68
2023/08/30 01:11:33;;;;;;;25.00;14.07;;;;;;;13.05;100.00;101200.56;5054713;28;20128;-66
2023/08/30 01:14:12;;;;;;;25.43;14.90;;;;;;;13.00;100.00;101190.34;5054575;28;20429;-69
2023/08/30 01:16:38;;;;;;;18.50;14.20;;;;;;;12.96;100.00;101183.69;5057862;28;20410;-65
2023/08/30 01:19:46;;;;;;;22.97;14.60;;;;;;;13.02;100.00;101202.59;5055662;28;20031;-64
2023/08/30 01:22:49;;;;;;;23.55;15.48;;;;;;;13.00;100.00;101201.06;5054436;28;20031;-64
2023/08/30 01:25:14;;;;;;;26.90;15.57;;;;;;;12.95;100.00;101196.22;5054337;28;20048;-64
2023/08/30 01:27:41;;;;;;;27.30;16.13;;;;;;;12.95;100.00;101200.72;5054192;28;20033;-65
2023/08/30 01:30:08;;;;;;;25.33;15.03;;;;;;;12.91;100.00;101197.56;5053779;28;20053;-66
2023/08/30 01:32:35;;;;;;;21.07;15.27;;;;;;;12.86;100.00;101188.38;5056235;28;20052;-65
2023/08/30 01:35:03;;;;;;;25.17;16.03;;;;;;;12.82;100.00;101181.69;5054311;28;20471;-65
2023/08/30 01:37:31;;;;;;;22.77;15.57;;;;;;;12.79;100.00;101177.53;5054140;28;20125;-66
2023/08/30 01:39:57;;;;;;;23.13;15.43;;;;;;;12.88;100.00;101191.72;5053664;28;20043;-66
2023/08/30 01:42:25;;;;;;;26.80;16.03;;;;;;;12.84;100.00;101185.03;5054159;28;20063;-65
2023/08/30 01:44:57;;;;;;;24.97;16.53;;;;;;;12.79;100.00;101171.34;5053822;28;20037;-65
2023/08/30 01:47:25;;;;;;;25.43;15.33;;;;;;;12.82;100.00;101171.00;5055328;28;20115;-65
2023/08/30 01:49:52;;;;;;;20.95;14.45;;;;;;;12.79;100.00;101168.66;5056029;28;20047;-66
2023/08/30 01:52:19;;;;;;;31.57;16.50;;;;;;;12.81;100.00;101172.00;5053860;28;20029;-67
2023/08/30 01:54:46;;;;;;;35.07;17.90;;;;;;;12.70;100.00;101152.59;5053610;28;20036;-64
2023/08/30 01:57:12;;;;;;;24.17;16.80;;;;;;;12.86;100.00;101177.69;5053721;28;20021;-65
2023/08/30 01:59:37;;;;;;;20.67;16.03;;;;;;;12.86;100.00;101183.88;5053681;28;20025;-65
2023/08/30 02:02:04;;;;;;;24.23;15.53;;;;;;;12.86;100.00;101183.03;5053244;28;20021;-65
2023/08/30 02:04:31;;;;;;;28.57;17.67;;;;;;;12.86;100.00;101180.34;5057311;28;20033;-65
2023/08/30 02:07:14;;;;;;;25.02;15.38;;;;;;;12.87;100.00;101177.50;5053621;28;20029;-65
2023/08/30 02:09:54;;;;;;;27.43;16.53;;;;;;;12.83;100.00;101175.34;5053352;28;20480;-66
2023/08/30 02:12:24;;;;;;;25.63;17.33;;;;;;;12.75;100.00;101170.00;5052165;28;20060;-65
2023/08/30 02:14:50;;;;;;;29.23;17.03;;;;;;;12.74;100.00;101160.31;5053436;28;20028;-65
2023/08/30 02:17:17;;;;;;;23.40;16.50;;;;;;;12.79;100.00;101177.53;5053420;28;20258;-65
2023/08/30 02:19:43;;;;;;;26.87;17.17;;;;;;;12.79;100.00;101174.00;5057885;28;20082;-65
2023/08/30 02:22:09;;;;;;;23.90;16.07;;;;;;;12.68;100.00;101157.28;5053154;28;20037;-66
2023/08/30 02:24:35;;;;;;;25.43;15.97;;;;;;;12.68;100.00;101165.31;5053054;28;20025;-68
2023/08/30 02:27:00;;;;;;;25.37;15.00;;;;;;;12.55;100.00;101148.94;5053351;28;20029;-64
2023/08/30 02:29:26;;;;;;;23.73;15.20;;;;;;;12.78;100.00;101180.34;5053067;28;20389;-64
2023/08/30 02:31:53;;;;;;;25.80;15.77;;;;;;;12.78;100.00;101175.00;5053059;28;20040;-65
2023/08/30 02:34:18;;;;;;;25.03;16.67;;;;;;;12.58;100.00;101142.44;5053281;28;20068;-65
2023/08/30 02:36:44;;;;;;;21.23;15.63;;;;;;;12.51;100.00;101131.56;5053612;28;20060;-64
2023/08/30 02:39:11;;;;;;;21.43;15.23;;;;;;;12.68;100.00;101159.13;5052944;28;20025;-65
2023/08/30 02:41:37;;;;;;;24.93;15.30;;;;;;;12.77;100.00;101168.84;5052817;28;20029;-64
2023/08/30 02:44:03;;;;;;;26.47;15.97;;;;;;;12.70;100.00;101160.63;5053338;28;20028;-66
2023/08/30 02:46:28;;;;;;;22.50;14.57;;;;;;;12.80;100.00;101165.81;5053219;28;20028;-64
2023/08/30 02:48:55;;;;;;;19.70;14.50;;;;;;;12.83;100.00;101164.66;5051747;28;20033;-65
2023/08/30 02:51:20;;;;;;;23.23;16.57;;;;;;;12.78;100.00;101153.63;5052388;28;20502;-66
2023/08/30 02:53:46;;;;;;;23.87;15.33;;;;;;;12.80;100.00;101163.16;5052956;28;20029;-67
2023/08/30 02:56:11;;;;;;;18.67;14.40;;;;;;;12.82;100.00;101169.16;5052426;28;20021;-64
2023/08/30 02:58:37;;;;;;;22.73;15.80;;;;;;;12.80;100.00;101162.31;5052690;28;20419;-65
2023/08/30 03:01:02;;;;;;;17.60;13.97;;;;;;;12.80;100.00;101173.00;5053230;28;20028;-63
2023/08/30 03:03:28;;;;;;;21.57;15.07;;;;;;;12.85;100.00;101184.03;5056209;28;20052;-65
2023/08/30 03:05:54;;;;;;;18.97;14.30;;;;;;;12.74;100.00;101166.50;5054845;28;20024;-66
2023/08/30 03:08:19;;;;;;;21.90;15.70;;;;;;;12.75;100.00;101164.66;5053095;28;20031;-65
2023/08/30 03:10:45;;;;;;;20.43;15.37;;;;;;;12.71;100.00;101164.97;5052595;28;20032;-65
2023/08/30 03:13:10;;;;;;;21.37;14.93;;;;;;;12.70;100.00;101163.28;5052104;28;20108;-64
2023/08/30 03:15:36;;;;;;;21.23;13.97;;;;;;;12.76;100.00;101169.00;5052576;28;20098;-64
2023/08/30 03:18:01;;;;;;;22.73;13.47;;;;;;;12.74;100.00;101146.97;5052496;28;20149;-64
2023/08/30 03:20:28;;;;;;;22.07;14.47;;;;;;;12.82;100.00;101158.47;5052648;28;20043;-64
2023/08/30 03:22:57;;;;;;;19.97;13.40;;;;;;;12.81;100.00;101158.63;5054413;28;20036;-64
2023/08/30 03:25:23;;;;;;;17.63;13.37;;;;;;;12.90;100.00;101163.81;5051973;28;20542;-64
2023/08/30 03:27:48;;;;;;;16.37;12.13;;;;;;;12.95;100.00;101160.63;5051879;28;20041;-63
2023/08/30 03:30:14;;;;;;;15.10;12.53;;;;;;;12.94;100.00;101148.25;5051856;28;20144;-64
2023/08/30 03:32:40;;;;;;;14.53;12.13;;;;;;;12.95;100.00;101144.59;5051997;28;20033;-64
2023/08/30 03:35:06;;;;;;;16.00;12.37;;;;;;;12.97;100.00;101135.38;5051025;28;20524;-64
2023/08/30 03:37:31;;;;;;;15.13;12.57;;;;;;;12.95;100.00;101117.84;5054355;28;20032;-64
2023/08/30 03:39:57;;;;;;;18.87;14.07;;;;;;;13.24;100.00;101158.28;5050764;28;20029;-64
2023/08/30 03:42:22;;;;;;;15.03;11.83;;;;;;;13.31;100.00;101155.78;5051951;28;20522;-64
2023/08/30 03:44:48;;;;;;;14.17;11.53;;;;;;;13.00;100.00;101078.06;5052021;28;20017;-64
2023/08/30 03:47:13;;;;;;;15.03;11.17;;;;;;;13.57;100.00;101142.13;5051778;28;20025;-63
2023/08/30 03:49:39;;;;;;;12.97;10.50;;;;;;;13.74;100.00;101149.09;5051922;28;20036;-63
2023/08/30 03:52:04;;;;;;;14.67;10.23;;;;;;;13.85;100.00;101153.22;5050556;28;20039;-66
2023/08/30 03:54:31;;;;;;;11.20;10.10;;;;;;;13.90;100.00;101149.03;5051880;28;20064;-64
2023/08/30 03:56:57;;;;;;;14.07;10.23;;;;;;;13.91;100.00;101136.50;5052032;28;20033;-66
2023/08/30 03:59:23;;;;;;;12.67;11.03;;;;;;;13.99;100.00;101138.28;5051742;28;20495;-63
2023/08/30 04:01:49;;;;;;;16.20;11.60;;;;;;;13.94;100.00;101123.59;5051779;28;20079;-65
2023/08/30 04:04:14;;;;;;;15.37;12.33;;;;;;;13.82;100.00;101111.59;5054319;28;20033;-65
2023/08/30 04:06:40;;;;;;;12.87;11.00;;;;;;;13.88;100.00;101124.28;5055826;28;20025;-64
2023/08/30 04:09:06;;;;;;;15.70;11.63;;;;;;;13.77;100.00;101111.28;5054596;28;20166;-62
2023/08/30 04:11:32;;;;;;;14.40;12.63;;;;;;;13.82;100.00;101116.94;5055608;28;20068;-65
2023/08/30 04:13:58;;;;;;;12.97;11.60;;;;;;;13.87;100.00;101109.22;5055838;28;20025;-65
2023/08/30 04:16:23;;;;;;;13.27;11.37;;;;;;;13.70;100.00;101070.16;5055378;28;20032;-65
2023/08/30 04:18:48;;;;;;;17.93;11.33;;;;;;;13.71;100.00;101077.19;5054355;28;20028;-64
2023/08/30 04:21:14;;;;;;;15.53;11.20;;;;;;;13.97;100.00;101109.00;5055552;28;20036;-63
2023/08/30 04:23:39;;;;;;;14.87;10.50;;;;;;;13.93;100.00;101105.03;5057341;28;20036;-64
2023/08/30 04:26:05;;;;;;;14.00;11.17;;;;;;;13.95;100.00;101111.88;5055680;28;20040;-66
2023/08/30 04:28:30;;;;;;;18.07;10.70;;;;;;;13.89;100.00;101096.50;5054034;28;20025;-67
2023/08/30 04:30:56;;;;;;;13.03;10.07;;;;;;;14.01;100.00;101101.44;5055497;28;20036;-66
2023/08/30 04:33:22;;;;;;;11.93;10.60;;;;;;;14.03;100.00;101091.41;5055380;28;20037;-63
2023/08/30 04:35:52;;;;;;;9.70;8.40;;;;;;;14.04;100.00;101082.34;5055158;28;20039;-65
2023/08/30 04:38:17;;;;;;;11.27;9.53;;;;;;;14.04;100.00;101074.31;5055297;28;20033;-65
2023/08/30 04:40:43;;;;;;;11.43;9.23;;;;;;;14.08;100.00;101078.31;5057916;28;20055;-66
2023/08/30 04:43:08;;;;;;;10.83;8.73;;;;;;;14.09;100.00;101069.25;5055079;28;20032;-65
2023/08/30 04:45:35;;;;;;;13.43;9.50;;;;;;;14.06;100.00;101064.25;5055385;28;20045;-66
2023/08/30 04:48:00;;;;;;;11.80;8.83;;;;;;;14.11;100.00;101077.94;5055557;28;20476;-65
2023/08/30 04:50:26;;;;;;;11.17;8.57;;;;;;;13.95;100.00;101047.59;5055502;28;20075;-67
2023/08/30 04:52:51;;;;;;;14.53;9.87;;;;;;;14.16;100.00;101080.91;5055064;28;20356;-65
2023/08/30 04:55:17;;;;;;;11.87;9.10;;;;;;;14.10;100.00;101066.41;5054042;28;20056;-67
2023/08/30 04:57:44;;;;;;;15.77;9.67;;;;;;;14.16;100.00;101067.53;5054997;28;20029;-66
2023/08/30 05:00:12;;;;;;;12.60;8.30;;;;;;;14.26;100.00;101074.31;5054707;28;20052;-65
2023/08/30 05:02:37;;;;;;;10.80;8.60;;;;;;;14.30;100.00;101073.97;5053940;28;20033;-65
2023/08/30 05:05:03;;;;;;;10.87;9.77;;;;;;;14.23;100.00;101061.28;5052874;28;20021;-65
2023/08/30 05:07:29;;;;;;;11.13;8.13;;;;;;;14.47;100.00;101092.47;5052548;28;20060;-65
2023/08/30 05:09:55;;;;;;;10.40;7.90;;;;;;;14.49;100.00;101082.38;5054802;28;20056;-65
2023/08/30 05:12:20;;;;;;;9.23;8.23;;;;;;;14.66;100.00;101087.59;5055663;28;20059;-65
2023/08/30 05:14:46;;;;;;;11.63;8.13;;;;;;;14.76;100.00;101074.78;5053078;28;20032;-64
2023/08/30 05:17:11;;;;;;;9.00;6.67;;;;;;;14.87;100.00;101085.06;5053108;28;20017;-64
2023/08/30 05:19:37;;;;;;;11.37;7.67;;;;;;;14.90;100.00;101073.97;5054614;28;20029;-64
2023/08/30 05:22:03;;;;;;;9.07;7.03;;;;;;;14.94;100.00;101072.56;5053990;28;20025;-65
2023/08/30 05:24:29;;;;;;;8.83;7.10;;;;;;;15.02;100.00;101079.69;5054389;28;20028;-64
2023/08/30 05:26:54;;;;;;;10.67;8.03;;;;;;;14.86;100.00;101052.03;5055967;28;20029;-66
2023/08/30 05:29:20;;;;;;;14.37;8.47;;;;;;;15.23;100.00;101111.16;5054274;28;20048;-66
2023/08/30 05:31:45;;;;;;;10.07;7.27;;;;;;;15.29;100.00;101105.06;5054123;28;20115;-65
2023/08/30 05:34:11;;;;;;;13.27;8.03;;;;;;;15.41;100.00;101092.84;5054114;28;20542;-64
2023/08/30 05:36:37;;;;;;;11.80;7.87;;;;;;;15.38;100.00;101085.19;5053973;28;20460;-67
2023/08/30 05:39:03;;;;;;;16.23;8.10;;;;;;;15.51;100.00;101090.72;5053926;28;20369;-64
2023/08/30 05:41:29;;;;;;;11.43;7.63;;;;;;;15.65;100.00;101089.91;5054870;28;20041;-66
2023/08/30 05:43:55;;;;;;;10.73;6.23;;;;;;;15.74;100.00;101086.09;5054126;28;20029;-65
2023/08/30 05:46:20;;;;;;;11.77;7.63;;;;;;;15.85;100.00;101094.66;5054004;28;20423;-65
2023/08/30 05:48:46;;;;;;;9.00;7.13;;;;;;;15.64;100.00;101045.28;5053323;28;20029;-65
2023/08/30 05:51:11;;;;;;;12.47;6.13;;;;;;;15.99;100.00;101094.63;5053303;28;20032;-66
2023/08/30 05:53:37;;;;;;;14.03;5.97;;;;;;;16.12;100.00;101091.25;5053729;28;20032;-65
2023/08/30 05:56:03;;;;;;;9.83;6.07;;;;;;;16.21;100.00;101083.91;5053596;28;20036;-67
2023/08/30 05:58:29;;;;;;;9.10;6.60;;;;;;;16.21;100.00;101082.06;5055019;28;20033;-69
2023/08/30 06:00:56;;;;;;;10.90;6.13;;;;;;;16.32;100.00;101097.66;5053665;28;20491;-64
2023/08/30 06:03:21;;;;;;;7.40;5.60;;;;;;;16.37;100.00;101092.53;5053567;28;20024;-66
2023/08/30 06:05:48;;;;;;;8.40;5.40;;;;;;;16.45;100.00;101090.75;5053462;28;20033;-65
2023/08/30 06:08:14;;;;;;;8.90;5.50;;;;;;;16.54;100.00;101086.91;5054144;28;20029;-67
2023/08/30 06:10:40;;;;;;;8.43;4.83;;;;;;;16.60;100.00;101072.69;5052343;28;20040;-64
2023/08/30 06:13:06;;;;;;;12.87;5.73;;;;;;;16.70;100.00;101078.59;5054216;28;20029;-65
2023/08/30 06:15:31;;;;;;;7.03;5.00;;;;;;;16.76;100.00;101079.66;5053315;28;20061;-65
2023/08/30 06:17:58;;;;;;;7.97;5.20;;;;;;;16.80;100.00;101089.84;5053388;28;20033;-64
2023/08/30 06:20:24;;;;;;;10.57;5.17;;;;;;;16.76;100.00;101087.72;5053440;28;20029;-66
2023/08/30 06:22:49;;;;;;;8.27;5.50;;;;;;;16.89;100.00;101094.06;5053207;28;20124;-65
2023/08/30 06:25:15;;;;;;;10.43;5.33;;;;;;;16.96;100.00;101084.16;5053123;28;20102;-66
2023/08/30 06:27:56;;;;;;;11.17;5.47;;;;;;;17.10;100.00;101100.41;5052220;28;20021;-64
2023/08/30 06:30:22;;;;;;;7.37;5.33;;;;;;;16.98;100.00;101079.41;5052900;28;20084;-64
2023/08/30 06:32:48;;;;;;;10.93;5.50;;;;;;;17.14;100.00;101093.59;5053051;28;20119;-64
2023/08/30 06:35:13;;;;;;;10.23;5.22;;;;;;;17.33;100.00;101103.63;5053033;28;20147;-64
2023/08/30 06:37:39;;;;;;;6.88;5.47;;;;;;;17.37;100.00;101087.94;5053152;28;20074;-67
2023/08/30 06:40:05;;;;;;;8.43;5.25;;;;;;;17.27;100.00;101064.06;5051709;28;20070;-64
2023/08/30 06:42:30;;;;;;;6.73;5.40;;;;;;;17.58;100.00;101104.81;5052981;28;20036;-66
2023/08/30 06:44:56;;;;;;;8.52;5.03;;;;;;;17.59;100.00;101090.31;5052985;28;20032;-66
2023/08/30 06:47:21;;;;;;;7.53;5.95;;;;;;;17.73;100.00;101088.56;5052449;28;20025;-65
2023/08/30 06:49:47;;;;;;;7.82;6.20;;;;;;;17.84;99.83;101097.91;5052600;28;20059;-66
2023/08/30 06:52:12;;;;;;;11.55;6.65;;;;;;;17.55;99.88;101062.13;5052904;28;20036;-64
2023/08/30 06:54:40;;;;;;;15.90;10.35;;;;;;;17.84;99.92;101114.06;5052567;28;20461;-65
2023/08/30 06:57:06;;;;;;;10.82;7.10;;;;;;;17.86;99.95;101125.47;5052053;28;20062;-65
2023/08/30 06:59:38;;;;;;;14.65;6.97;;;;;;;17.78;99.37;101114.88;5051718;28;20494;-65
2023/08/30 07:02:07;;;;;;;11.95;6.95;;;;;;;17.96;98.74;101123.25;5049367;28;20020;-68
2023/08/30 07:04:32;;;;;;;14.88;6.25;;;;;;;18.02;97.61;101130.53;5051209;28;20070;-66
2023/08/30 07:06:58;;;;;;;9.40;5.63;;;;;;;18.11;97.85;101137.38;5051831;28;20192;-67
2023/08/30 07:09:28;;;;;;;6.60;5.43;;;;;;;18.20;96.11;101133.47;5050861;28;20384;-65
2023/08/30 07:11:58;;;;;;;8.20;5.80;;;;;;;18.30;95.19;101141.19;5052620;28;20078;-66
2023/08/30 07:14:23;;;;;;;7.13;5.03;;;;;;;18.52;93.87;101128.38;5052347;28;20033;-65
2023/08/30 07:16:49;;;;;;;7.05;4.75;;;;;;;18.74;91.72;101127.13;5051146;28;20558;-64
2023/08/30 07:19:16;;;;;;;7.45;4.50;;;;;;;19.05;89.07;101144.56;5052367;28;20032;-65
2023/08/30 07:21:42;;;;;;;6.68;4.30;;;;;;;19.13;89.47;101133.56;5052201;28;20029;-67
2023/08/30 07:24:08;;;;;;;7.07;4.18;;;;;;;19.31;89.23;101136.44;5052541;28;20353;-66
2023/08/30 07:26:33;;;;;;;5.88;4.10;;;;;;;19.52;88.67;101156.13;5052327;28;20024;-65
2023/08/30 07:28:59;;;;;;;6.43;3.60;;;;;;;19.55;87.98;101150.34;5052158;28;20045;-66
2023/08/30 07:31:24;;;;;;;8.88;3.92;;;;;;;19.60;87.73;101143.25;5050572;28;20037;-65
2023/08/30 07:33:49;;;;;;;6.65;4.20;;;;;;;19.68;86.81;101137.63;5051201;28;20036;-66
2023/08/30 07:36:15;;;;;;;10.27;3.55;;;;;;;19.75;84.92;101135.72;5052031;28;20040;-67
2023/08/30 07:38:40;;;;;;;5.78;4.03;;;;;;;19.74;82.57;101153.00;5052020;28;20102;-67
2023/08/30 07:41:06;;;;;;;9.40;3.38;;;;;;;19.65;83.42;101150.72;5052507;28;20032;-69
2023/08/30 07:43:31;;;;;;;12.52;3.42;;;;;;;19.49;82.96;101147.41;5052249;28;20115;-68
2023/08/30 07:45:58;;;;;;;12.43;4.28;;;;;;;19.03;84.28;101081.88;5052069;28;20478;-67
2023/08/30 07:48:24;;;;;;;13.40;4.82;;;;;;;19.36;85.70;101160.94;5052279;28;20403;-64
2023/08/30 07:50:50;;;;;;;5.82;3.65;;;;;;;19.05;84.80;101137.31;5047554;28;20037;-67
2023/08/30 07:53:15;;;;;;;5.13;3.08;;;;;;;19.13;86.07;101157.88;5053067;28;20067;-66
2023/08/30 07:55:40;;;;;;;4.82;3.05;;;;;;;19.22;85.45;101156.59;5052375;28;20020;-66
2023/08/30 07:58:08;;;;;;;5.13;3.60;;;;;;;19.19;85.26;101140.84;5052450;28;20460;-69
2023/08/30 08:00:34;;;;;;;5.53;2.80;;;;;;;19.30;84.90;101159.09;5052641;28;20044;-67
2023/08/30 08:03:00;;;;;;;6.43;3.45;;;;;;;19.38;84.20;101153.47;5053731;28;20423;-67
2023/08/30 08:05:25;;;;;;;7.63;3.38;;;;;;;19.38;84.58;101145.38;5047567;28;20048;-67
2023/08/30 08:07:52;;;;;;;7.55;3.55;;;;;;;19.44;85.25;101155.34;5033208;28;20029;-68
2023/08/30 08:10:18;;;;;;;8.95;3.33;;;;;;;19.56;85.14;101152.00;5032641;28;20021;-67
2023/08/30 08:12:44;;;;;;;6.20;2.97;;;;;;;19.71;84.71;101160.69;5032747;28;20479;-71
2023/08/30 08:15:10;;;;;;;6.28;3.78;;;;;;;19.69;83.95;101146.56;5031400;28;20117;-69
2023/08/30 08:17:35;;;;;;;10.70;3.10;;;;;;;19.60;82.34;101147.81;5032399;28;20388;-69
2023/08/30 08:20:01;;;;;;;9.77;3.42;;;;;;;19.57;83.58;101164.47;5032004;28;20040;-70
2023/08/30 08:22:28;;;;;;;6.82;3.00;;;;;;;19.39;84.05;101159.72;5032074;28;20057;-67
2023/08/30 08:24:56;;;;;;;7.13;4.05;;;;;;;19.35;84.98;101188.97;5030745;28;20025;-65
2023/08/30 08:27:21;;;;;;;3.13;2.67;;;;;;;19.25;85.43;101199.38;5031449;28;20461;-66
2023/08/30 08:29:47;;;;;;;5.55;3.13;;;;;;;19.15;86.23;101205.22;5031336;28;20056;-66
2023/08/30 08:32:12;;;;;;;11.95;3.78;;;;;;;18.98;87.59;101190.47;5045961;28;20048;-67
2023/08/30 08:34:38;;;;;;;6.50;3.28;;;;;;;18.85;88.21;101193.16;5051545;28;20606;-68
2023/08/30 08:37:03;;;;;;;3.97;3.22;;;;;;;18.79;87.80;101186.75;5051279;28;20492;-66
2023/08/30 08:39:30;;;;;;;5.47;3.80;;;;;;;18.75;88.48;101176.53;5043480;28;20030;-67
2023/08/30 08:41:56;;;;;;;5.72;3.42;;;;;;;18.69;89.40;101172.81;5049370;28;20380;-69
2023/08/30 08:44:25;;;;;;;6.40;3.83;;;;;;;18.70;88.92;101181.72;5050359;28;20028;-66
2023/08/30 08:46:52;;;;;;;7.22;3.30;;;;;;;18.58;89.51;101149.09;5051225;28;20025;-67
2023/08/30 08:49:18;;;;;;;8.02;4.05;;;;;;;18.67;89.74;101163.25;5052207;28;20032;-66
2023/08/30 08:51:44;;;;;;;6.05;3.90;;;;;;;18.60;90.22;101147.03;5055843;28;20383;-67
2023/08/30 08:54:11;;;;;;;6.95;4.00;;;;;;;18.69;90.02;101150.38;5057884;28;20028;-67
2023/08/30 08:56:38;;;;;;;8.35;5.47;;;;;;;18.68;91.91;101138.75;5055416;28;20047;-68
2023/08/30 08:59:08;;;;;;;12.05;5.63;;;;;;;18.57;93.64;101120.47;5053779;28;20487;-67
2023/08/30 09:01:35;;;;;;;7.63;4.30;;;;;;;18.52;93.53;101109.47;5055766;28;20091;-67
2023/08/30 09:04:08;;;;;;;19.05;4.47;;;;;;;18.41;94.58;101086.63;5054063;28;20364;-66
2023/08/30 09:06:35;;;;;;;10.93;4.32;;;;;;;18.40;93.57;101076.88;5049177;28;20033;-67
2023/08/30 09:09:04;;;;;;;9.55;3.95;;;;;;;18.37;94.27;101057.59;5037203;28;20446;-68
2023/08/30 09:11:30;;;;;;;9.45;4.03;;;;;;;18.18;93.58;101025.00;5055071;28;20091;-65
2023/08/30 09:13:56;;;;;;;12.93;3.85;;;;;;;18.17;95.35;101009.88;5055307;28;20020;-70
2023/08/30 09:16:21;;;;;;;9.90;3.55;;;;;;;18.21;95.07;101018.38;5079057;28;20025;-67
2023/08/30 09:19:03;;;;;;;7.82;3.42;;;;;;;18.20;96.29;101022.09;5054274;28;20036;-70
2023/08/30 09:21:31;;;;;;;6.93;3.50;;;;;;;18.17;96.22;101014.44;5055044;28;20094;-68
2023/08/30 09:24:01;;;;;;;6.50;3.35;;;;;;;18.17;96.37;101006.34;5054667;28;20071;-66
2023/08/30 09:26:34;;;;;;;7.88;3.47;;;;;;;18.16;95.31;100978.56;5054466;28;20016;-70
2023/08/30 09:29:04;;;;;;;10.02;4.90;;;;;;;18.35;94.38;100976.09;5054809;28;20423;-68
2023/08/30 09:31:36;;;;;;;4.22;3.08;;;;;;;18.51;93.61;100975.66;5049415;28;20090;-70
2023/08/30 09:34:03;;;;;;;5.93;2.95;;;;;;;18.69;92.29;100962.38;5052695;28;20025;-68
2023/08/30 09:36:36;;;;;;;5.15;2.95;;;;;;;18.79;90.43;100932.25;5054045;28;20029;-67
2023/08/30 09:39:05;;;;;;;5.40;2.78;;;;;;;19.13;88.86;100937.31;5052722;28;20036;-65
2023/08/30 09:41:34;;;;;;;8.90;3.72;;;;;;;19.30;89.01;100943.03;5052812;28;20017;-67
2023/08/30 09:44:06;;;;;;;3.92;2.53;;;;;;;19.38;87.93;100950.91;5051267;28;20075;-68
2023/08/30 09:46:32;;;;;;;10.98;3.13;;;;;;;19.24;87.84;100930.41;5053572;28;20033;-65
2023/08/30 09:48:57;;;;;;;6.03;3.08;;;;;;;19.19;88.51;100914.88;5053269;28;20021;-68
2023/08/30 09:51:26;;;;;;;5.03;2.53;;;;;;;19.03;89.22;100899.16;5053606;28;20072;-68
2023/08/30 09:53:58;;;;;;;6.43;4.05;;;;;;;18.98;90.48;100906.25;5053292;28;20020;-69
2023/08/30 09:56:25;;;;;;;7.15;3.28;;;;;;;18.87;90.90;100883.47;5053370;28;20032;-69
2023/08/30 09:58:51;;;;;;;6.43;2.55;;;;;;;19.03;90.64;100885.66;5053119;28;20449;-68
2023/08/30 10:01:17;;;;;;;4.88;2.50;;;;;;;19.07;89.82;100862.56;5052455;28;20031;-67
2023/08/30 10:03:42;;;;;;;4.78;2.85;;;;;;;18.94;89.34;100824.06;5052087;28;20025;-64
2023/08/30 10:06:08;;;;;;;5.68;2.95;;;;;;;19.33;89.07;100877.81;5052040;28;20031;-63
2023/08/30 10:08:36;;;;;;;3.17;2.38;;;;;;;19.42;88.84;100898.13;5052571;28;20127;-67
2023/08/30 10:11:03;;;;;;;4.82;2.65;;;;;;;19.24;89.24;100868.31;5053211;28;20103;-67
2023/08/30 10:13:30;;;;;;;6.55;3.20;;;;;;;19.33;90.50;100894.00;5053422;28;20090;-65
2023/08/30 10:16:03;;;;;;;8.80;2.38;;;;;;;19.28;90.04;100901.09;5053207;28;20309;-66
2023/08/30 10:18:29;;;;;;;5.28;2.70;;;;;;;19.30;90.44;100910.66;5047625;28;20022;-66
2023/08/30 10:20:56;;;;;;;3.63;2.33;;;;;;;19.16;90.97;100899.09;5034021;28;20031;-65
2023/08/30 10:23:23;;;;;;;5.40;2.90;;;;;;;19.38;90.44;100920.38;5033104;28;20075;-66
2023/08/30 10:25:50;;;;;;;6.40;2.90;;;;;;;19.39;90.57;100909.38;5032364;28;20116;-64
2023/08/30 10:28:17;;;;;;;6.70;2.58;;;;;;;19.34;89.90;100890.25;5033073;28;20376;-67
2023/08/30 10:30:43;;;;;;;4.63;2.88;;;;;;;19.20;91.00;100913.00;5039016;28;20053;-64
2023/08/30 10:33:16;;;;;;;5.20;2.25;;;;;;;19.10;92.16;100913.47;5053065;28;20044;-66
2023/08/30 10:35:51;;;;;;;9.02;2.75;;;;;;;18.88;93.75;100891.34;5052849;28;20108;-67
2023/08/30 10:38:28;;;;;;;10.30;3.30;;;;;;;18.70;96.94;100888.50;5051551;28;20036;-65
2023/08/30 10:40:54;;;;;;;5.28;3.15;;;;;;;18.32;98.03;100853.31;5051735;28;20041;-66
2023/08/30 10:43:32;;;;;;;5.68;3.47;;;;;;;18.44;100.00;100888.53;5050592;28;20029;-69
2023/08/30 10:46:11;;;;;;;7.32;2.70;;;;;;;18.37;100.00;100885.03;5049691;28;20029;-68
2023/08/30 10:48:42;;;;;;;5.35;3.28;;;;;;;18.18;100.00;100865.97;5033417;28;20091;-66
2023/08/30 10:51:24;;;;;;;10.32;4.00;;;;;;;17.79;100.00;100801.34;5051400;28;20040;-69
2023/08/30 10:53:59;;;;;;;5.45;3.65;;;;;;;17.80;100.00;100763.44;5052840;28;20047;-68
2023/08/30 10:56:29;;;;;;;5.78;3.80;;;;;;;17.63;100.00;100654.44;5053233;28;20061;-68
2023/08/30 10:58:55;;;;;;;6.82;4.18;;;;;;;17.62;100.00;100685.94;5053360;28;20037;-68
2023/08/30 11:01:21;;;;;;;6.10;3.78;;;;;;;17.56;100.00;100769.44;5052814;28;20115;-69
2023/08/30 11:03:49;;;;;;;6.20;3.30;;;;;;;17.69;100.00;100815.25;5052860;28;20036;-70
2023/08/30 11:06:16;;;;;;;6.88;4.18;;;;;;;17.83;100.00;100803.41;5052692;28;20074;-71
2023/08/30 11:08:41;;;;;;;6.60;3.35;;;;;;;18.01;100.00;100820.81;5053349;28;20029;-67
2023/08/30 11:11:08;;;;;;;5.82;4.35;;;;;;;18.14;100.00;100823.47;5052789;28;20035;-71